createdAt,value
2019-02-20T00:00:23.504Z,10.63
2019-02-20T00:02:49.338Z,10.90
2019-02-20T00:05:15.182Z,10.20
2019-02-20T00:07:41.033Z,11.00
2019-02-20T00:10:07.010Z,10.63
2019-02-20T00:12:32.837Z,10.67
2019-02-20T00:14:58.701Z,11.00
2019-02-20T00:17:24.500Z,11.17
2019-02-20T00:19:50.392Z,10.77
2019-02-20T00:22:16.346Z,11.17
2019-02-20T00:24:42.308Z,11.33
2019-02-20T00:27:08.145Z,10.63
2019-02-20T00:29:33.979Z,11.10
2019-02-20T00:31:59.834Z,11.50
2019-02-20T00:34:25.671Z,11.90
2019-02-20T00:36:51.516Z,11.10
2019-02-20T00:39:17.322Z,11.77
2019-02-20T00:41:43.160Z,10.80
2019-02-20T00:44:16.657Z,11.70
2019-02-20T00:46:44.427Z,12.17
2019-02-20T00:49:12.186Z,11.17
2019-02-20T00:51:42.617Z,10.77
2019-02-20T00:54:09.380Z,9.93
2019-02-20T00:56:35.529Z,10.50
2019-02-20T00:59:01.368Z,10.53
2019-02-20T01:01:27.320Z,10.73
2019-02-20T01:03:53.157Z,11.27
2019-02-20T01:06:18.997Z,10.43
2019-02-20T01:08:44.822Z,10.93
2019-02-20T01:11:10.767Z,11.00
2019-02-20T01:13:36.586Z,10.60
2019-02-20T01:16:02.439Z,10.13
2019-02-20T01:18:28.264Z,10.23
2019-02-20T01:20:54.135Z,11.27
2019-02-20T01:23:19.992Z,10.90
2019-02-20T01:25:45.806Z,10.10
2019-02-20T01:28:11.944Z,9.90
2019-02-20T01:30:37.766Z,10.57
2019-02-20T01:33:03.717Z,10.40
2019-02-20T01:35:29.552Z,10.93
2019-02-20T01:37:55.394Z,10.53
2019-02-20T01:40:21.216Z,9.73
2019-02-20T01:42:47.096Z,11.13
2019-02-20T01:45:12.917Z,9.57
2019-02-20T01:47:38.762Z,10.17
2019-02-20T01:50:06.193Z,11.27
2019-02-20T01:52:32.158Z,11.10
2019-02-20T01:54:58.025Z,10.77
2019-02-20T01:57:23.847Z,10.03
2019-02-20T01:59:49.720Z,10.27
2019-02-20T02:02:15.552Z,10.50
2019-02-20T02:04:41.504Z,9.73
2019-02-20T02:07:07.339Z,10.23
2019-02-20T02:09:33.213Z,10.07
2019-02-20T02:11:59.031Z,10.23
2019-02-20T02:14:24.986Z,10.53
2019-02-20T02:16:50.806Z,10.00
2019-02-20T02:19:16.639Z,9.93
2019-02-20T02:21:42.508Z,10.37
2019-02-20T02:24:08.463Z,9.73
2019-02-20T02:26:34.282Z,9.83
2019-02-20T02:29:00.113Z,10.30
2019-02-20T02:31:25.952Z,10.53
2019-02-20T02:33:52.581Z,10.03
2019-02-20T02:36:18.417Z,9.97
2019-02-20T02:38:44.231Z,9.90
2019-02-20T02:41:10.089Z,10.27
2019-02-20T02:43:35.911Z,9.63
2019-02-20T02:46:01.751Z,9.77
2019-02-20T02:48:27.591Z,9.27
2019-02-20T02:50:53.438Z,9.37
2019-02-20T02:53:19.264Z,9.40
2019-02-20T02:55:45.112Z,8.90
2019-02-20T02:58:10.932Z,10.30
2019-02-20T03:00:36.779Z,9.50
2019-02-20T03:03:02.686Z,9.47
2019-02-20T03:05:28.526Z,9.10
2019-02-20T03:07:54.366Z,9.10
2019-02-20T03:10:20.215Z,9.10
2019-02-20T03:12:46.040Z,9.33
2019-02-20T03:15:12.001Z,8.87
2019-02-20T03:17:37.864Z,8.90
2019-02-20T03:20:06.450Z,9.20
2019-02-20T03:22:32.271Z,8.73
2019-02-20T03:24:58.128Z,10.30
2019-02-20T03:27:23.940Z,8.90
2019-02-20T03:29:49.767Z,9.50
2019-02-20T03:32:15.600Z,8.33
2019-02-20T03:34:41.433Z,9.43
2019-02-20T03:37:07.270Z,8.60
2019-02-20T03:39:33.155Z,9.50
2019-02-20T03:41:59.461Z,8.60
2019-02-20T03:44:25.288Z,8.90
2019-02-20T03:46:51.164Z,8.17
2019-02-20T03:49:16.975Z,8.73
2019-02-20T03:51:42.809Z,8.60
2019-02-20T03:54:08.646Z,8.27
2019-02-20T03:56:34.503Z,9.03
2019-02-20T03:59:00.329Z,8.87
2019-02-20T04:01:26.190Z,8.50
2019-02-20T04:03:52.001Z,8.43
2019-02-20T04:06:17.858Z,8.73
2019-02-20T04:08:43.683Z,8.67
2019-02-20T04:11:09.523Z,8.30
2019-02-20T04:13:35.381Z,8.63
2019-02-20T04:16:01.212Z,8.13
2019-02-20T04:18:27.085Z,9.07
2019-02-20T04:20:52.926Z,8.50
2019-02-20T04:23:18.789Z,8.30
2019-02-20T04:25:44.643Z,8.20
2019-02-20T04:28:10.507Z,8.37
2019-02-20T04:30:36.350Z,8.33
2019-02-20T04:33:02.499Z,8.37
2019-02-20T04:35:28.327Z,8.03
2019-02-20T04:37:54.156Z,8.07
2019-02-20T04:40:19.991Z,8.17
2019-02-20T04:42:45.854Z,9.10
2019-02-20T04:45:11.672Z,9.40
2019-02-20T04:47:37.627Z,8.93
2019-02-20T04:50:06.467Z,8.70
2019-02-20T04:52:32.352Z,8.37
2019-02-20T04:54:58.172Z,8.33
2019-02-20T04:57:23.994Z,9.30
2019-02-20T04:59:49.806Z,8.57
2019-02-20T05:02:15.652Z,8.60
2019-02-20T05:04:41.622Z,8.13
2019-02-20T05:07:07.549Z,8.00
2019-02-20T05:09:33.816Z,8.17
2019-02-20T05:11:59.638Z,7.90
2019-02-20T05:14:25.494Z,8.20
2019-02-20T05:16:51.367Z,8.07
2019-02-20T05:19:17.287Z,8.40
2019-02-20T05:21:43.225Z,8.17
2019-02-20T05:24:09.063Z,8.40
2019-02-20T05:26:34.889Z,8.10
2019-02-20T05:29:00.730Z,8.63
2019-02-20T05:31:26.543Z,8.73
2019-02-20T05:33:52.392Z,9.07
2019-02-20T05:36:18.215Z,8.67
2019-02-20T05:38:44.084Z,8.23
2019-02-20T05:41:09.902Z,8.50
2019-02-20T05:43:35.755Z,8.13
2019-02-20T05:46:01.588Z,8.60
2019-02-20T05:48:27.413Z,8.37
2019-02-20T05:50:53.252Z,8.73
2019-02-20T05:53:19.059Z,8.87
2019-02-20T05:55:44.922Z,9.10
2019-02-20T05:58:10.855Z,9.27
2019-02-20T06:00:36.712Z,8.70
2019-02-20T06:03:04.789Z,8.43
2019-02-20T06:05:30.406Z,9.23
2019-02-20T06:07:56.424Z,9.07
2019-02-20T06:10:22.227Z,9.33
2019-02-20T06:12:48.065Z,8.47
2019-02-20T06:15:14.007Z,8.73
2019-02-20T06:17:39.803Z,9.63
2019-02-20T06:20:10.219Z,9.40
2019-02-20T06:22:36.120Z,9.30
2019-02-20T06:25:03.445Z,8.70
2019-02-20T06:27:29.321Z,9.20
2019-02-20T06:29:55.159Z,8.87
2019-02-20T06:32:21.013Z,8.87
2019-02-20T06:34:46.833Z,9.43
2019-02-20T06:37:12.783Z,9.37
2019-02-20T06:39:38.632Z,9.37
2019-02-20T06:42:04.528Z,9.00
2019-02-20T06:44:30.597Z,9.17
2019-02-20T06:46:56.475Z,9.50
2019-02-20T06:49:22.302Z,9.57
2019-02-20T06:51:48.165Z,9.67
2019-02-20T06:54:14.092Z,9.57
2019-02-20T06:56:39.943Z,9.03
2019-02-20T06:59:05.776Z,9.37
2019-02-20T07:01:31.756Z,9.33
2019-02-20T07:03:57.561Z,9.97
2019-02-20T07:06:38.870Z,9.20
2019-02-20T07:09:29.376Z,9.40
2019-02-20T07:12:28.843Z,9.07
2019-02-20T07:15:13.265Z,9.50
2019-02-20T07:17:45.928Z,9.63
2019-02-20T07:20:24.163Z,10.60
2019-02-20T07:23:06.055Z,9.13
2019-02-20T07:25:38.688Z,10.20
2019-02-20T07:28:23.607Z,10.00
2019-02-20T07:30:49.620Z,9.13
2019-02-20T07:33:15.471Z,9.40
2019-02-20T07:35:41.388Z,9.77
2019-02-20T07:38:07.324Z,9.80
2019-02-20T07:40:33.149Z,10.50
2019-02-20T07:42:59.008Z,10.50
2019-02-20T07:45:24.821Z,10.13
2019-02-20T07:47:50.684Z,9.90
2019-02-20T07:50:17.013Z,10.67
2019-02-20T07:52:42.853Z,10.80
2019-02-20T07:55:13.193Z,10.23
2019-02-20T07:57:36.535Z,10.73
2019-02-20T08:00:05.787Z,10.90
2019-02-20T08:02:31.601Z,11.73
2019-02-20T08:04:57.444Z,11.43
2019-02-20T08:07:23.280Z,11.50
2019-02-20T08:09:49.118Z,11.97
2019-02-20T08:12:14.934Z,12.03
2019-02-20T08:14:40.784Z,12.17
2019-02-20T08:17:06.605Z,13.30
2019-02-20T08:19:32.744Z,12.30
2019-02-20T08:21:58.710Z,10.90
2019-02-20T08:24:24.702Z,11.20
2019-02-20T08:26:50.798Z,11.90
2019-02-20T08:29:16.606Z,10.93
2019-02-20T08:31:42.463Z,12.43
2019-02-20T08:34:08.291Z,11.33
2019-02-20T08:36:34.255Z,12.37
2019-02-20T08:39:00.087Z,10.97
2019-02-20T08:41:25.954Z,11.67
2019-02-20T08:43:51.791Z,11.60
2019-02-20T08:46:17.652Z,11.53
2019-02-20T08:48:43.488Z,11.77
2019-02-20T08:51:09.349Z,11.63
2019-02-20T08:53:35.178Z,12.10
2019-02-20T08:56:01.165Z,11.93
2019-02-20T08:58:26.988Z,12.13
2019-02-20T09:00:52.965Z,12.50
2019-02-20T09:03:18.807Z,13.17
2019-02-20T09:05:44.674Z,13.43
2019-02-20T09:08:10.523Z,13.37
2019-02-20T09:10:36.388Z,13.23
2019-02-20T09:13:02.440Z,13.27
2019-02-20T09:15:28.253Z,14.20
2019-02-20T09:17:54.127Z,12.60
2019-02-20T09:20:20.002Z,13.70
2019-02-20T09:22:45.845Z,14.13
2019-02-20T09:25:19.603Z,13.60
2019-02-20T09:27:39.443Z,13.87
2019-02-20T09:30:09.085Z,13.90
2019-02-20T09:32:34.933Z,14.27
2019-02-20T09:35:00.801Z,13.80
2019-02-20T09:37:26.675Z,13.90
2019-02-20T09:39:52.496Z,14.53
2019-02-20T09:42:18.466Z,14.80
2019-02-20T09:44:44.889Z,14.10
2019-02-20T09:47:11.435Z,15.10
2019-02-20T09:49:37.268Z,13.90
2019-02-20T09:52:03.209Z,14.33
2019-02-20T09:54:29.088Z,14.60
2019-02-20T09:56:57.145Z,13.83
2019-02-20T09:59:23.215Z,14.63
2019-02-20T10:01:49.212Z,15.83
2019-02-20T10:04:15.053Z,15.87
2019-02-20T10:06:40.972Z,15.70
2019-02-20T10:09:06.989Z,15.07
2019-02-20T10:11:32.805Z,15.77
2019-02-20T10:13:58.665Z,15.90
2019-02-20T10:16:24.728Z,15.97
2019-02-20T10:18:50.586Z,15.90
2019-02-20T10:21:17.263Z,16.33
2019-02-20T10:23:45.270Z,16.13
2019-02-20T10:26:11.266Z,16.45
2019-02-20T10:28:37.127Z,16.77
2019-02-20T10:31:02.962Z,16.25
2019-02-20T10:33:28.807Z,16.52
2019-02-20T10:35:54.644Z,15.20
2019-02-20T10:38:20.461Z,16.65
2019-02-20T10:40:46.314Z,16.48
2019-02-20T10:43:12.132Z,16.20
2019-02-20T10:45:37.966Z,15.93
2019-02-20T10:48:03.917Z,15.70
2019-02-20T10:50:29.918Z,15.60
2019-02-20T10:52:55.877Z,15.32
2019-02-20T10:55:21.712Z,15.35
2019-02-20T10:57:47.539Z,15.48
2019-02-20T11:00:25.349Z,16.25
2019-02-20T11:02:51.280Z,16.35
2019-02-20T11:05:17.261Z,16.00
2019-02-20T11:07:43.086Z,15.45
2019-02-20T11:10:08.923Z,14.60
2019-02-20T11:12:34.787Z,14.73
2019-02-20T11:15:00.642Z,14.90
2019-02-20T11:17:26.466Z,14.43
2019-02-20T11:19:52.364Z,14.68
2019-02-20T11:22:18.301Z,13.18
2019-02-20T11:24:44.128Z,13.20
2019-02-20T11:27:09.989Z,11.78
2019-02-20T11:29:35.819Z,9.15
2019-02-20T11:32:01.797Z,7.97
2019-02-20T11:34:27.628Z,7.08
2019-02-20T11:36:53.486Z,6.67
2019-02-20T11:39:19.415Z,6.05
2019-02-20T11:41:45.273Z,6.97
2019-02-20T11:44:11.101Z,6.00
2019-02-20T11:46:36.967Z,6.17
2019-02-20T11:49:02.808Z,6.20
2019-02-20T11:51:28.683Z,6.65
2019-02-20T11:53:54.642Z,7.25
2019-02-20T11:56:26.468Z,6.22
2019-02-20T11:58:48.221Z,7.12
2019-02-20T12:01:14.389Z,6.47
2019-02-20T12:03:40.235Z,5.92
2019-02-20T12:06:06.196Z,7.40
2019-02-20T12:08:32.170Z,7.00
2019-02-20T12:10:57.996Z,6.85
2019-02-20T12:13:23.859Z,6.42
2019-02-20T12:15:50.009Z,6.60
2019-02-20T12:18:17.577Z,6.30
2019-02-20T12:20:43.639Z,6.30
2019-02-20T12:23:09.620Z,6.85
2019-02-20T12:25:35.547Z,7.10
2019-02-20T12:28:01.433Z,6.80
2019-02-20T12:30:27.389Z,7.45
2019-02-20T12:32:53.251Z,7.37
2019-02-20T12:35:19.081Z,6.53
2019-02-20T12:37:45.017Z,5.70
2019-02-20T12:40:10.980Z,6.40
2019-02-20T12:42:36.945Z,5.70
2019-02-20T12:45:04.917Z,3.40
2019-02-20T12:47:30.781Z,3.62
2019-02-20T12:49:56.783Z,3.70
2019-02-20T12:52:22.674Z,4.12
2019-02-20T12:54:48.545Z,4.70
2019-02-20T12:57:14.379Z,4.85
2019-02-20T12:59:40.262Z,4.17
2019-02-20T13:02:06.092Z,4.20
2019-02-20T13:04:31.957Z,4.42
2019-02-20T13:06:59.530Z,4.55
2019-02-20T13:09:25.641Z,5.53
2019-02-20T13:11:51.565Z,5.05
2019-02-20T13:14:17.396Z,4.80
2019-02-20T13:16:43.566Z,5.10
2019-02-20T13:19:09.459Z,4.67
2019-02-20T13:21:35.438Z,5.50
2019-02-20T13:24:01.380Z,5.55
2019-02-20T13:26:27.226Z,4.85
2019-02-20T13:28:53.102Z,4.75
2019-02-20T13:31:19.070Z,4.85
2019-02-20T13:33:44.916Z,5.72
2019-02-20T13:36:10.805Z,4.58
2019-02-20T13:38:36.632Z,4.10
2019-02-20T13:41:02.629Z,4.22
2019-02-20T13:43:28.469Z,4.58
2019-02-20T13:45:54.444Z,5.25
2019-02-20T13:48:20.293Z,5.33
2019-02-20T13:50:46.156Z,5.03
2019-02-20T13:53:14.189Z,4.78
2019-02-20T13:55:39.864Z,4.47
2019-02-20T13:58:05.823Z,4.00
2019-02-20T14:00:31.791Z,3.90
2019-02-20T14:02:57.621Z,5.08
2019-02-20T14:05:24.035Z,4.72
2019-02-20T14:07:49.873Z,4.53
2019-02-20T14:10:19.522Z,5.00
2019-02-20T14:12:45.591Z,5.60
2019-02-20T14:15:11.541Z,5.17
2019-02-20T14:17:37.499Z,5.87
2019-02-20T14:20:06.531Z,6.30
2019-02-20T14:22:32.402Z,6.65
2019-02-20T14:24:58.545Z,6.22
2019-02-20T14:27:24.397Z,6.08
2019-02-20T14:29:50.344Z,6.22
2019-02-20T14:32:16.207Z,6.33
2019-02-20T14:34:42.222Z,6.53
2019-02-20T14:37:08.176Z,6.50
2019-02-20T14:39:34.009Z,6.12
2019-02-20T14:42:01.041Z,6.45
2019-02-20T14:44:27.265Z,6.17
2019-02-20T14:46:53.525Z,6.50
2019-02-20T14:49:19.370Z,5.97
2019-02-20T14:51:45.209Z,6.40
2019-02-20T14:54:11.258Z,6.50
2019-02-20T14:56:37.187Z,6.50
2019-02-20T14:59:03.052Z,7.03
2019-02-20T15:01:28.982Z,6.97
2019-02-20T15:03:54.972Z,6.80
2019-02-20T15:06:20.836Z,6.62
2019-02-20T15:08:46.795Z,6.80
2019-02-20T15:11:12.754Z,7.12
2019-02-20T15:13:38.734Z,6.47
2019-02-20T15:16:04.595Z,7.17
2019-02-20T15:18:30.557Z,7.30
2019-02-20T15:20:56.542Z,7.72
2019-02-20T15:23:22.502Z,11.97
2019-02-20T15:25:48.391Z,13.50
2019-02-20T15:28:14.812Z,10.35
2019-02-20T15:30:40.846Z,12.78
2019-02-20T15:33:06.821Z,7.92
2019-02-20T15:35:32.701Z,8.08
2019-02-20T15:37:58.675Z,11.05
2019-02-20T15:40:24.963Z,9.70
2019-02-20T15:42:50.806Z,8.78
2019-02-20T15:45:16.778Z,9.30
2019-02-20T15:47:42.608Z,8.90
2019-02-20T15:50:11.543Z,8.43
2019-02-20T15:52:37.493Z,9.20
2019-02-20T15:55:05.272Z,9.93
2019-02-20T15:57:37.891Z,9.25
2019-02-20T15:59:59.018Z,9.05
2019-02-20T16:02:24.861Z,8.87
2019-02-20T16:04:50.782Z,10.00
2019-02-20T16:07:16.723Z,9.53
2019-02-20T16:09:42.818Z,9.78
2019-02-20T16:12:09.070Z,9.67
2019-02-20T16:14:35.039Z,9.27
2019-02-20T16:17:01.105Z,9.40
2019-02-20T16:19:27.042Z,9.90
2019-02-20T16:21:53.044Z,9.63
2019-02-20T16:24:18.899Z,9.53
2019-02-20T16:26:44.907Z,9.40
2019-02-20T16:29:10.726Z,8.93
2019-02-20T16:31:36.722Z,9.83
2019-02-20T16:34:02.950Z,10.80
2019-02-20T16:36:28.824Z,10.60
2019-02-20T16:38:54.820Z,10.77
2019-02-20T16:41:20.827Z,10.20
2019-02-20T16:43:48.599Z,9.23
2019-02-20T16:46:16.864Z,9.70
2019-02-20T16:48:43.211Z,10.80
2019-02-20T16:51:09.369Z,10.60
2019-02-20T16:53:35.536Z,10.57
2019-02-20T16:56:01.395Z,10.90
2019-02-20T16:58:27.282Z,10.13
2019-02-20T17:00:53.208Z,10.07
2019-02-20T17:03:19.213Z,10.27
2019-02-20T17:05:45.097Z,10.60
2019-02-20T17:08:11.062Z,10.50
2019-02-20T17:10:36.921Z,10.07
2019-02-20T17:13:03.082Z,10.70
2019-02-20T17:15:29.544Z,11.50
2019-02-20T17:17:55.437Z,11.03
2019-02-20T17:20:21.409Z,12.00
2019-02-20T17:22:47.383Z,11.80
2019-02-20T17:25:13.722Z,12.53
2019-02-20T17:27:39.732Z,12.33
2019-02-20T17:30:11.698Z,14.07
2019-02-20T17:32:37.665Z,14.67
2019-02-20T17:35:05.716Z,13.90
2019-02-20T17:37:31.766Z,12.93
2019-02-20T17:39:57.648Z,12.80
2019-02-20T17:42:23.588Z,12.70
2019-02-20T17:44:49.453Z,12.23
2019-02-20T17:47:15.404Z,12.43
2019-02-20T17:49:41.382Z,12.37
2019-02-20T17:52:07.272Z,12.83
2019-02-20T17:54:33.883Z,13.10
2019-02-20T17:56:59.700Z,12.80
2019-02-20T17:59:25.678Z,14.43
2019-02-20T18:01:51.732Z,13.27
2019-02-20T18:04:17.629Z,13.47
2019-02-20T18:06:43.605Z,12.77
2019-02-20T18:09:10.638Z,14.33
2019-02-20T18:11:36.499Z,14.43
2019-02-20T18:14:02.480Z,13.30
2019-02-20T18:16:28.383Z,13.90
2019-02-20T18:18:54.189Z,14.43
2019-02-20T18:21:20.169Z,18.27
2019-02-20T18:23:46.057Z,17.70
2019-02-20T18:26:12.082Z,17.57
2019-02-20T18:28:37.916Z,16.53
2019-02-20T18:31:03.894Z,16.87
2019-02-20T18:33:29.827Z,15.90
2019-02-20T18:35:55.699Z,17.50
2019-02-20T18:38:21.541Z,17.83
2019-02-20T18:40:47.364Z,17.37
2019-02-20T18:43:13.231Z,17.23
2019-02-20T18:45:39.200Z,17.40
2019-02-20T18:48:05.385Z,18.00
2019-02-20T18:50:31.259Z,17.87
2019-02-20T18:52:57.173Z,18.30
2019-02-20T18:55:23.121Z,17.93
2019-02-20T18:57:49.052Z,19.40
2019-02-20T19:00:21.370Z,18.83
2019-02-20T19:02:47.232Z,17.07
2019-02-20T19:05:13.596Z,17.17
2019-02-20T19:07:39.553Z,18.43
2019-02-20T19:10:18.268Z,21.10
2019-02-20T19:13:09.202Z,19.23
2019-02-20T19:15:41.942Z,17.53
2019-02-20T19:18:30.021Z,18.97
2019-02-20T19:21:23.986Z,19.57
2019-02-20T19:24:19.676Z,17.33
2019-02-20T19:27:07.626Z,16.60
2019-02-20T19:29:58.605Z,15.93
2019-02-20T19:32:40.530Z,14.63
2019-02-20T19:35:28.179Z,15.10
2019-02-20T19:38:09.704Z,15.57
2019-02-20T19:41:04.625Z,15.80
2019-02-20T19:43:34.286Z,14.40
2019-02-20T19:46:23.481Z,14.10
2019-02-20T19:49:08.429Z,14.33
2019-02-20T19:51:44.285Z,14.93
2019-02-20T19:54:20.161Z,14.83
2019-02-20T19:56:49.807Z,15.23
2019-02-20T19:59:22.133Z,16.07
2019-02-20T20:02:12.994Z,16.43
2019-02-20T20:04:45.670Z,17.07
2019-02-20T20:07:48.965Z,15.97
2019-02-20T20:10:39.904Z,17.07
2019-02-20T20:13:35.474Z,17.67
2019-02-20T20:16:20.151Z,24.37
2019-02-20T20:18:58.765Z,35.13
2019-02-20T20:21:45.051Z,33.17
2019-02-20T20:24:32.530Z,34.27
2019-02-20T20:27:25.298Z,29.20
2019-02-20T20:30:28.796Z,26.33
2019-02-20T20:33:04.211Z,27.10
2019-02-20T20:35:57.200Z,23.03
2019-02-20T20:38:32.624Z,22.53
2019-02-20T20:41:09.182Z,20.07
2019-02-20T20:43:54.516Z,19.27
2019-02-20T20:46:42.637Z,19.00
2019-02-20T20:49:18.117Z,18.63
2019-02-20T20:51:50.871Z,20.50
2019-02-20T20:54:29.419Z,21.67
2019-02-20T20:57:19.942Z,21.07
2019-02-20T20:59:52.306Z,19.27
2019-02-20T21:02:25.001Z,20.10
2019-02-20T21:05:23.788Z,19.80
2019-02-20T21:07:56.505Z,18.97
2019-02-20T21:10:28.907Z,21.10
2019-02-20T21:13:10.594Z,21.13
2019-02-20T21:16:00.884Z,20.77
2019-02-20T21:18:39.663Z,19.77
2019-02-20T21:21:15.424Z,18.80
2019-02-20T21:23:54.252Z,18.30
2019-02-20T21:26:58.969Z,19.37
2019-02-20T21:29:47.422Z,19.23
2019-02-20T21:32:23.426Z,18.47
2019-02-20T21:34:58.954Z,17.53
2019-02-20T21:37:37.337Z,18.60
2019-02-20T21:40:29.571Z,18.50
2019-02-20T21:43:21.881Z,18.40
2019-02-20T21:46:09.629Z,17.67
2019-02-20T21:48:59.072Z,16.20
2019-02-20T21:51:28.887Z,16.87
2019-02-20T21:54:04.337Z,17.30
2019-02-20T21:56:37.045Z,16.77
2019-02-20T21:59:15.484Z,16.93
2019-02-20T22:01:57.075Z,16.43
2019-02-20T22:04:32.834Z,16.27
2019-02-20T22:07:30.352Z,18.93
2019-02-20T22:10:08.804Z,19.63
2019-02-20T22:13:11.937Z,21.23
2019-02-20T22:15:47.888Z,17.93
2019-02-20T22:18:35.763Z,18.27
2019-02-20T22:21:11.299Z,18.50
2019-02-20T22:23:56.004Z,17.13
2019-02-20T22:26:34.601Z,16.97
2019-02-20T22:29:33.483Z,16.67
2019-02-20T22:32:03.190Z,16.57
2019-02-20T22:35:03.452Z,16.67
2019-02-20T22:37:47.907Z,15.10
2019-02-20T22:40:35.613Z,14.70
2019-02-20T22:43:31.908Z,15.33
2019-02-20T22:46:13.755Z,16.50
2019-02-20T22:48:58.385Z,16.80
2019-02-20T22:51:47.912Z,16.07
2019-02-20T22:54:44.608Z,15.33
2019-02-20T22:57:26.126Z,16.00
2019-02-20T23:00:34.623Z,15.13
2019-02-20T23:03:12.246Z,14.17
2019-02-20T23:05:48.113Z,14.50
2019-02-20T23:08:20.549Z,15.13
2019-02-20T23:11:08.608Z,14.10
2019-02-20T23:13:41.016Z,14.27
2019-02-20T23:16:06.910Z,14.30
2019-02-20T23:18:32.723Z,13.63
2019-02-20T23:20:58.682Z,14.00
2019-02-20T23:23:24.536Z,13.73
2019-02-20T23:25:50.389Z,14.20
2019-02-20T23:28:16.234Z,14.30
2019-02-20T23:30:42.063Z,13.47
2019-02-20T23:33:07.928Z,14.03
2019-02-20T23:35:33.763Z,14.43
2019-02-20T23:37:59.606Z,14.30
2019-02-20T23:40:27.609Z,14.13
2019-02-20T23:42:53.208Z,14.13
2019-02-20T23:45:19.205Z,14.63
2019-02-20T23:47:45.050Z,14.00
2019-02-20T23:50:11.070Z,13.93
2019-02-20T23:52:37.280Z,14.33
2019-02-20T23:55:05.051Z,14.50
2019-02-20T23:57:30.878Z,13.50
2019-02-20T23:59:57.138Z,14.40
